Allston, Massachusetts
Current Conditions -  °F | °C
As of 11:54 PM on Sunday 19 Oct 2014 (Local Time) from KBOS Reporting Station
Scattered Clouds Scattered Clouds  
Wind Chill: 39°   Ceiling: Unl
Heat Index: 44°   Visibility: 10mi
Dew Point: 25°   Wind: 10mph
Humidity: 47%   Direction: 290°WNW
Pressure: 29.96"   Gusts: NA
Location:  42.36°N, 71.13°W
Report Text: KBOS 200354Z 29009KT 10SM SCT055 SCT220 07/M04 A2996 RMK AO2 SLP143 T00671039
Loading
Personal Weather Stations






























Interactive Weather Map New forecast layout! Learn more

10-Day Weather Forecast

Advertisements
Track Severe Weather on mobile